Latest Weather Observations for Noarlunga

IDS60801

Issued at 5:05 pm CST Friday 1 August 2014 (issued every 30 minutes, with the page automatically refreshed every 10 minutes)

About weather observations | Map of weather stations | Latest weather observations for SA | Other Formats
Station Details ID: 023885 Name: NOARLUNGA Lat: -35.16 Lon: 138.51 Height: 55.0 m
Data from the previous 72 hours. | See also: Recent months at Noarlunga
Date/Time
CST
Temp
°C
App
Temp
°C
Dew
Point
Rel
Hum
%
Delta-T
°C
Wind Press
QNH
hPa
Press
MSL
hPa
Rain
since 9 am
mm
Dir
 
Spd
km/h
Gust
km/h
Spd
kts
Gust
kts
01/05:00pm 9.7 6.8 2.6 61 3.0 SSW 7 13 4 7 - - 0.4
01/04:30pm 9.6 6.9 2.5 61 3.0 SSW 6 13 3 7 - - 0.4
01/04:00pm 9.1 4.0 3.1 66 2.6 S 19 28 10 15 - - 0.4
01/03:42pm 9.9 3.0 2.3 59 3.2 S 28 56 15 30 - - 0.2
01/03:30pm 11.7 5.5 1.9 51 4.2 SSW 24 41 13 22 - - 0.2
01/03:00pm 11.5 5.2 -0.9 42 5.0 SSW 22 33 12 18 - - 0.2
01/02:30pm 12.4 4.8 0.8 45 4.9 SW 30 44 16 24 - - 0.2
01/02:14pm 12.2 5.0 0.6 45 4.8 SW 28 48 15 26 - - 0.2
01/02:00pm 12.1 4.6 1.4 48 4.5 SW 30 46 16 25 - - 0.2
01/01:30pm 11.3 5.9 4.3 62 3.2 SW 22 33 12 18 - - 0.2
01/01:00pm 10.0 4.5 4.0 66 2.7 SW 22 30 12 16 - - 0.2
01/12:43pm 10.6 4.0 4.3 65 2.8 SW 28 48 15 26 - - 0.2
01/12:30pm 9.3 3.2 4.7 73 2.1 WSW 26 39 14 21 - - 0.2
01/12:17pm 8.6 0.7 4.2 74 1.9 WSW 35 54 19 29 - - 0.2
01/12:08pm 10.8 1.9 2.9 58 3.4 SW 39 54 21 29 - - 0.0
01/12:00pm 11.8 6.8 3.6 57 3.6 SW 19 30 10 16 - - 0.0
01/11:30am 10.6 5.4 5.6 71 2.3 W 22 37 12 20 - - 0.0
01/11:00am 10.9 4.3 2.2 55 3.7 SW 26 39 14 21 - - 0.0
01/10:30am 9.1 2.2 2.4 63 2.8 SW 28 50 15 27 - - 0.0
01/10:03am 9.6 2.3 2.5 61 3.0 SW 30 50 16 27 - - 0.0
01/10:00am 9.9 2.4 3.2 63 2.9 SW 32 50 17 27 - - 0.0
01/09:30am 10.0 3.3 3.5 64 2.8 WSW 28 43 15 23 - - 0.0
01/09:00am 9.1 3.0 2.7 64 2.7 SW 24 39 13 21 - - -
01/08:30am 8.1 2.0 2.8 69 2.2 SW 24 35 13 19 - - -
01/08:01am 9.6 2.3 2.7 62 2.9 WSW 30 50 16 27 - - -
01/08:00am 9.5 1.9 2.6 62 2.9 WSW 32 50 17 27 - - -
01/07:31am 9.3 1.4 2.4 62 2.9 WSW 33 52 18 28 - - -
01/07:30am 9.3 1.0 2.4 62 2.9 WSW 35 52 19 28 - - -
01/07:03am 9.4 1.6 2.7 63 2.9 WSW 33 57 18 31 - - -
01/07:00am 9.3 2.1 3.1 65 2.7 WSW 30 46 16 25 - - -
01/06:30am 7.5 -1.1 2.6 71 2.0 WSW 37 65 20 35 - - -
01/06:00am 9.7 1.4 2.3 60 3.1 W 35 56 19 30 - - -
01/05:30am 9.5 1.6 2.4 61 3.0 WSW 33 54 18 29 - - -
01/05:00am 9.1 1.3 2.7 64 2.7 W 33 57 18 31 - - -
01/04:30am 9.9 1.3 2.5 60 3.2 W 37 61 20 33 - - -
01/04:00am 9.5 1.6 2.4 61 3.0 W 33 54 18 29 - - -
01/03:30am 9.3 1.4 2.2 61 3.0 W 33 56 18 30 - - -
01/03:00am 9.1 1.0 3.1 66 2.6 W 35 61 19 33 - - 2.0
01/02:48am 8.7 2.0 3.7 71 2.2 WSW 28 50 15 27 - - -
01/02:30am 7.5 2.7 4.5 81 1.3 W 19 32 10 17 - - -
01/02:01am 9.1 2.1 3.9 70 2.3 W 30 50 16 27 - - -
01/02:00am 9.1 2.0 3.7 69 2.4 W 30 48 16 26 - - -
01/01:30am 7.5 -0.6 3.0 73 1.9 W 35 57 19 31 - - -
01/01:20am 8.3 1.3 3.9 74 1.9 WNW 30 50 16 27 - - -
01/01:00am 8.9 2.5 3.3 68 2.4 W 26 44 14 24 - - -
01/12:30am 8.8 0.5 2.4 64 2.7 W 35 57 19 31 - - -
01/12:00am 9.7 2.8 2.6 61 3.0 W 28 54 15 29 - - -
 
Date/Time
CST
Temp
°C
App
Temp
°C
Dew
Point
Rel
Hum
%
Delta-T
°C
Wind Press
QNH
hPa
Press
MSL
hPa
Rain
since 9 am
mm
Dir
 
Spd
km/h
Gust
km/h
Spd
kts
Gust
kts
31/11:30pm 9.6 1.6 3.8 67 2.5 W 35 59 19 32 - - -
31/11:02pm 9.4 2.8 4.2 70 2.3 W 28 52 15 28 - - -
31/11:00pm 9.2 3.4 4.4 72 2.1 W 24 52 13 28 - - -
31/10:30pm 7.8 1.5 3.5 74 1.8 WNW 26 46 14 25 - - -
31/10:02pm 10.0 3.0 2.1 58 3.3 W 28 56 15 30 - - -
31/10:00pm 9.7 3.2 2.6 61 3.0 W 26 41 14 22 - - -
31/09:30pm 10.0 2.6 1.6 56 3.5 W 30 57 16 31 - - -
31/09:00pm 9.7 2.3 2.1 59 3.2 W 30 50 16 27 - - 3.0
31/08:59pm 9.8 2.9 2.4 60 3.1 W 28 50 15 27 - - -
31/08:30pm 8.1 2.7 2.4 67 2.4 W 20 32 11 17 - - -
31/08:00pm 9.8 3.0 3.3 64 2.8 W 28 65 15 35 - - -
31/07:30pm 8.6 3.0 3.4 70 2.2 W 22 35 12 19 - - -
31/07:08pm 7.9 -0.1 3.6 74 1.8 W 35 56 19 30 - - -
31/07:02pm 8.2 -0.9 4.2 76 1.7 WSW 41 56 22 30 - - -
31/07:00pm 7.5 2.4 3.9 78 1.6 WSW 20 35 11 19 - - -
31/06:43pm 8.6 -1.0 3.2 69 2.3 WSW 43 63 23 34 - - -
31/06:41pm 9.8 0.2 3.5 65 2.7 WSW 43 59 23 32 - - -
31/06:30pm 9.9 4.7 3.6 65 2.8 W 20 33 11 18 - - -
31/06:00pm 9.6 4.4 3.8 67 2.5 W 20 33 11 18 - - -
31/05:30pm 9.5 2.4 3.5 66 2.6 WSW 30 48 16 26 - - -
31/05:00pm 9.4 1.6 4.8 73 2.1 WSW 35 54 19 29 - - -
31/04:30pm 9.2 2.4 7.0 86 1.0 WSW 32 54 17 29 - - -
31/04:00pm 10.0 4.2 7.8 86 1.1 W 28 50 15 27 - - -
31/03:30pm 10.1 3.5 7.7 85 1.2 W 32 52 17 28 - - -
31/03:01pm 10.7 4.3 8.5 86 1.1 W 32 52 17 28 - - -
31/03:00pm 10.7 4.7 8.6 87 1.0 W 30 43 16 23 - - -
31/02:30pm 10.9 4.2 8.1 83 1.4 WNW 33 57 18 31 - - -
31/02:24pm 10.8 3.4 8.2 84 1.3 WNW 37 57 20 31 - - -
31/02:19pm 10.5 4.7 8.1 85 1.2 W 28 46 15 25 - - -
31/02:00pm 11.2 6.7 8.6 84 1.3 W 22 37 12 20 - - -
31/01:30pm 11.2 5.6 8.9 86 1.1 W 28 48 15 26 - - -
31/01:28pm 11.1 5.5 8.8 86 1.1 W 28 48 15 26 - - -
31/01:00pm 10.7 4.7 8.8 88 0.9 W 30 44 16 24 - - -
31/12:45pm 10.5 4.9 8.8 89 0.8 W 28 52 15 28 - - -
31/12:30pm 10.4 4.8 8.7 89 0.8 W 28 43 15 23 - - -
31/12:00pm 10.9 6.9 9.2 89 0.8 WSW 20 41 11 22 - - -
31/11:42am 12.4 5.6 9.4 82 1.5 WNW 35 54 19 29 - - 0.6
31/11:40am 13.5 6.4 9.7 78 2.0 WNW 37 54 20 29 - - 0.4
31/11:30am 14.0 7.4 8.6 70 2.7 N 33 52 18 28 - - 0.2
31/11:00am 13.8 6.0 8.4 70 2.7 N 39 57 21 31 - - 0.2
31/10:34am 14.1 6.7 8.5 69 2.8 N 37 56 20 30 - - 0.2
31/10:30am 14.3 7.4 8.7 69 2.8 N 35 54 19 29 - - 0.2
31/09:00am 14.1 7.1 8.5 69 2.8 N 35 56 19 30 - - 0.0
31/08:30am 13.8 7.2 8.6 71 2.6 NNW 33 54 18 29 - - 0.0
31/08:21am 13.6 7.6 8.7 72 2.5 NNW 30 50 16 27 - - 0.0
31/08:00am 13.3 7.3 8.8 74 2.3 NNW 30 41 16 22 - - 0.0
31/07:30am 13.2 7.2 8.5 73 2.4 NNW 30 44 16 24 - - 0.0
31/07:00am 12.4 6.7 8.3 76 2.0 N 28 46 15 25 - - 0.0
31/06:30am 12.7 6.2 8.0 73 2.3 N 32 46 17 25 - - 0.0
31/06:25am 12.8 7.0 7.9 72 2.4 N 28 46 15 25 - - 0.0
31/06:00am 12.7 6.5 7.8 72 2.4 N 30 46 16 25 - - 0.0
31/05:58am 12.7 6.9 7.8 72 2.4 N 28 46 15 25 - - 0.0
31/05:30am 11.6 5.7 7.3 75 2.1 N 28 37 15 20 - - 0.0
31/05:00am 12.1 5.8 7.2 72 2.4 N 30 43 16 23 - - 0.0
31/04:30am 12.5 5.8 7.2 70 2.6 N 32 46 17 25 - - 0.0
31/04:00am 13.1 6.4 7.3 68 2.8 N 32 43 17 23 - - 0.0
31/03:30am 13.0 6.7 7.2 68 2.8 N 30 41 16 22 - - 0.0
31/03:18am 12.6 6.7 7.3 70 2.6 N 28 48 15 26 - - 0.0
31/03:00am 12.8 6.5 7.3 69 2.7 N 30 41 16 22 - - 0.0
31/02:30am 12.5 7.4 7.8 73 2.3 N 24 33 13 18 - - 0.0
31/02:00am 12.5 7.1 8.2 75 2.1 N 26 37 14 20 - - 0.0
31/01:30am 13.2 7.8 7.9 70 2.6 N 26 39 14 21 - - 0.0
31/01:00am 13.3 8.3 8.2 71 2.5 N 24 33 13 18 - - 0.0
31/12:30am 13.5 8.6 8.4 71 2.6 N 24 35 13 19 - - 0.0
31/12:00am 13.4 8.6 8.9 74 2.3 N 24 33 13 18 - - 0.0
 
Date/Time
CST
Temp
°C
App
Temp
°C
Dew
Point
Rel
Hum
%
Delta-T
°C
Wind Press
QNH
hPa
Press
MSL
hPa
Rain
since 9 am
mm
Dir
 
Spd
km/h
Gust
km/h
Spd
kts
Gust
kts
30/11:30pm 13.6 9.3 9.3 75 2.2 N 22 32 12 17 - - 0.0
30/11:00pm 13.7 9.4 9.4 75 2.2 N 22 30 12 16 - - 0.0
30/10:30pm 14.3 9.7 9.5 73 2.5 NNW 24 35 13 19 - - 0.0
30/10:00pm 13.8 10.1 10.0 78 2.0 N 20 33 11 18 - - 0.0
30/09:30pm 14.5 9.9 9.7 73 2.5 NNW 24 35 13 19 - - 0.0
30/09:00pm 14.1 10.4 10.1 77 2.1 NNW 20 28 11 15 - - 0.0
30/08:30pm 14.3 10.6 10.1 76 2.2 NNW 20 30 11 16 - - 0.0
30/08:00pm 14.3 9.9 10.3 77 2.1 N 24 33 13 18 - - 0.0
30/07:30pm 14.2 9.8 10.4 78 2.0 N 24 35 13 19 - - 0.0
30/07:00pm 14.2 9.9 10.6 79 1.9 N 24 35 13 19 - - 0.0
30/06:30pm 14.0 9.7 10.6 80 1.8 N 24 33 13 18 - - 0.0
30/06:00pm 13.8 9.5 10.6 81 1.7 N 24 37 13 20 - - 0.0
30/05:30pm 14.3 9.7 10.9 80 1.8 NNW 26 35 14 19 - - 0.0
30/05:00pm 14.5 9.9 10.9 79 1.9 NNW 26 43 14 23 - - 0.0
30/04:30pm 15.1 10.1 11.1 77 2.1 NNW 28 41 15 22 - - 0.0
30/04:00pm 15.1 10.6 11.3 78 2.0 NNW 26 39 14 21 - - 0.0
30/03:30pm 15.5 11.4 11.5 77 2.2 NNW 24 39 13 21 - - 0.0
30/03:00pm 15.4 11.7 11.4 77 2.2 NNW 22 35 12 19 - - 0.0
30/02:30pm 15.4 11.7 11.4 77 2.2 NNW 22 37 12 20 - - 0.0
30/02:00pm 15.6 11.5 11.6 77 2.2 NW 24 35 13 19 - - 0.0
30/01:30pm 16.1 11.7 11.7 75 2.4 NW 26 41 14 22 - - 0.0
30/01:00pm 15.9 11.6 11.9 77 2.2 NNW 26 39 14 21 - - 0.0
30/12:30pm 14.8 11.2 11.9 83 1.6 NNW 22 33 12 18 - - 0.0
30/12:00pm 14.8 10.7 11.6 81 1.7 NNW 24 35 13 19 - - 0.0
30/11:30am 15.4 11.0 11.6 78 2.1 NNW 26 39 14 21 - - 0.0
30/11:00am 15.0 10.9 11.6 80 1.8 NNW 24 33 13 18 - - 0.0
30/10:30am 14.5 10.5 11.8 84 1.5 NNW 24 35 13 19 - - 0.0
30/10:00am 14.1 9.2 11.4 84 1.4 NNW 28 43 15 23 - - 0.0
30/09:30am 13.5 9.0 11.4 87 1.1 NNW 26 41 14 22 - - 0.0
30/09:00am 13.3 9.2 11.4 88 1.0 NNW 24 33 13 18 - - 0.6
30/08:30am 13.2 9.5 11.4 89 1.0 NNW 22 33 12 18 - - 0.6
30/08:00am 13.0 8.8 11.2 89 1.0 NNW 24 33 13 18 - - 0.6
30/07:30am 12.9 9.5 11.1 89 0.9 NNW 20 33 11 18 - - 0.6
30/07:00am 12.9 9.1 11.1 89 0.9 NNW 22 32 12 17 - - 0.6
30/06:30am 12.8 9.0 11.0 89 0.9 NNW 22 37 12 20 - - 0.6
30/06:00am 12.9 8.7 11.1 89 0.9 N 24 37 13 20 - - 0.6
30/05:30am 12.9 8.7 11.0 88 1.0 N 24 37 13 20 - - 0.6
30/05:00am 12.8 9.0 11.2 90 0.8 N 22 32 12 17 - - 0.6
30/04:30am 12.9 9.5 11.1 89 0.9 N 20 30 11 16 - - 0.6
30/04:00am 13.0 9.6 11.2 89 1.0 N 20 32 11 17 - - 0.6
30/03:30am 13.0 9.6 11.2 89 1.0 NNW 20 28 11 15 - - 0.6
30/03:00am 12.9 9.5 11.3 90 0.8 N 20 30 11 16 - - 0.6
30/02:30am 13.1 9.7 11.3 89 1.0 N 20 26 11 14 - - 0.6
30/02:00am 13.1 9.9 11.3 89 1.0 NNW 19 26 10 14 - - 0.6
30/01:30am 13.1 9.0 11.5 90 0.9 N 24 33 13 18 - - 0.6
30/01:00am 13.0 10.5 11.2 89 1.0 NNW 15 24 8 13 - - 0.6
30/12:30am 13.0 9.8 11.2 89 1.0 N 19 26 10 14 - - 0.6
30/12:00am 13.4 9.7 11.5 88 1.0 NNW 22 30 12 16 - - 0.6
 
Date/Time
CST
Temp
°C
App
Temp
°C
Dew
Point
Rel
Hum
%
Delta-T
°C
Wind Press
QNH
hPa
Press
MSL
hPa
Rain
since 9 am
mm
Dir
 
Spd
km/h
Gust
km/h
Spd
kts
Gust
kts
29/11:30pm 13.5 10.1 11.4 87 1.1 NNW 20 32 11 17 - - 0.6
29/11:00pm 13.6 10.4 11.3 86 1.2 NNW 19 28 10 15 - - 0.6
29/10:30pm 13.8 10.4 11.1 84 1.4 NW 20 32 11 17 - - 0.6
29/10:00pm 13.9 9.4 11.4 85 1.3 NNW 26 37 14 20 - - 0.6
29/09:30pm 13.8 10.7 11.5 86 1.2 NNW 19 28 10 15 - - 0.6
29/09:00pm 13.9 10.5 11.2 84 1.4 NW 20 32 11 17 - - 0.6
29/08:30pm 13.8 10.6 11.1 84 1.4 NW 19 30 10 16 - - 0.6
29/08:00pm 13.9 10.2 11.6 86 1.2 NNW 22 37 12 20 - - 0.6
29/07:30pm 13.7 11.0 11.6 87 1.1 NNW 17 24 9 13 - - 0.6
29/07:00pm 13.7 9.6 11.4 86 1.2 NW 24 37 13 20 - - 0.6
29/06:30pm 13.9 9.1 11.6 86 1.2 NW 28 43 15 23 - - 0.6
29/06:10pm 14.2 9.4 11.7 85 1.3 NW 28 56 15 30 - - 0.4
29/06:00pm 14.3 10.6 11.6 84 1.4 NNW 22 33 12 18 - - 0.4
29/05:30pm 14.1 10.4 11.6 85 1.3 NNW 22 33 12 18 - - 0.4

Other Formats:

Comma delimited format used in spreadsheet applications
http://www.bom.gov.au/fwo/IDS60801/IDS60801.94808.axf

JavaScript Object Notation format (JSON) in row-major order
http://www.bom.gov.au/fwo/IDS60801/IDS60801.94808.json